Time,TemperatureF,DewpointF,PressureIn,WindDirection,WindDirectionDegrees,WindSpeedMPH,WindSpeedGustMPH,Humidity,HourlyPrecipIn,Conditions,Clouds,dailyrainin,SoftwareType,DateUTC
2013-04-05 00:00:00,68.4,64.4,30.07,ENE,64,5.0,6.0,87,0.00,,,0.00,VWS V14.01,2013-04-05 10:00:00,
2013-04-05 00:05:00,68.4,64.4,30.07,East,90,6.0,6.0,87,0.00,,,0.00,VWS V14.01,2013-04-05 10:05:00,
2013-04-05 00:11:00,68.4,64.4,30.06,East,87,4.0,7.0,87,0.00,,,0.00,VWS V14.01,2013-04-05 10:11:00,
2013-04-05 00:16:00,68.3,64.3,30.06,NNE,31,5.0,7.0,87,0.00,,,0.00,VWS V14.01,2013-04-05 10:16:00,
2013-04-05 00:21:00,68.3,64.3,30.06,ENE,57,7.0,7.0,87,0.00,,,0.00,VWS V14.01,2013-04-05 10:21:00,
2013-04-05 00:26:00,68.4,64.4,30.06,NNE,22,4.0,6.0,87,0.00,,,0.00,VWS V14.01,2013-04-05 10:26:00,
2013-04-05 00:32:00,68.5,64.2,30.06,ENE,66,2.0,4.0,86,0.00,,,0.00,VWS V14.01,2013-04-05 10:32:00,
2013-04-05 00:37:00,68.5,64.2,30.05,NE,35,7.0,8.0,86,0.00,,,0.00,VWS V14.01,2013-04-05 10:37:00,
2013-04-05 00:42:00,68.6,64.2,30.05,NE,53,11.0,11.0,86,0.00,,,0.00,VWS V14.01,2013-04-05 10:42:00,
2013-04-05 00:47:00,68.5,64.2,30.05,East,97,6.0,6.0,86,0.00,,,0.00,VWS V14.01,2013-04-05 10:47:00,
2013-04-05 00:52:00,68.6,64.2,30.05,NE,53,9.0,10.0,86,0.00,,,0.00,VWS V14.01,2013-04-05 10:52:00,
2013-04-05 00:57:00,68.6,63.9,30.04,NNE,16,8.0,8.0,85,0.00,,,0.00,VWS V14.01,2013-04-05 10:57:00,
2013-04-05 01:02:00,68.6,63.9,30.04,ENE,64,7.0,7.0,85,0.00,,,0.00,VWS V14.01,2013-04-05 11:02:00,
2013-04-05 01:07:00,68.6,63.9,30.04,NNE,16,7.0,7.0,85,0.00,,,0.00,VWS V14.01,2013-04-05 11:07:00,
2013-04-05 01:12:00,68.6,63.9,30.04,NNE,25,4.0,6.0,85,0.00,,,0.00,VWS V14.01,2013-04-05 11:12:00,
2013-04-05 01:17:00,68.5,63.8,30.04,NNE,25,5.0,6.0,85,0.00,,,0.00,VWS V14.01,2013-04-05 11:17:00,
2013-04-05 01:22:00,68.4,63.7,30.04,North,9,7.0,8.0,85,0.00,,,0.00,VWS V14.01,2013-04-05 11:22:00,
2013-04-05 01:28:00,68.4,63.7,30.04,NE,34,7.0,7.0,85,0.00,,,0.00,VWS V14.01,2013-04-05 11:28:00,
2013-04-05 01:33:00,68.4,64.1,30.03,NNE,25,5.0,6.0,86,0.00,,,0.00,VWS V14.01,2013-04-05 11:33:00,
2013-04-05 01:38:00,68.4,64.1,30.03,ENE,61,6.0,6.0,86,0.00,,,0.00,VWS V14.01,2013-04-05 11:38:00,
2013-04-05 01:43:00,68.3,64.0,30.03,NE,38,3.0,4.0,86,0.00,,,0.00,VWS V14.01,2013-04-05 11:43:00,
2013-04-05 01:48:00,68.3,63.6,30.03,NNE,26,3.0,4.0,85,0.00,,,0.00,VWS V14.01,2013-04-05 11:48:00,
2013-04-05 01:54:00,68.2,63.5,30.03,NNE,19,4.0,6.0,85,0.00,,,0.00,VWS V14.01,2013-04-05 11:54:00,
2013-04-05 01:59:00,68.1,63.4,30.03,NE,47,7.0,7.0,85,0.00,,,0.00,VWS V14.01,2013-04-05 11:59:00,
2013-04-05 02:04:00,68.1,63.4,30.02,NE,45,5.0,5.0,85,0.00,,,0.00,VWS V14.01,2013-04-05 12:04:00,
2013-04-05 02:09:00,68.1,63.4,30.02,NNE,15,9.0,9.0,85,0.00,,,0.00,VWS V14.01,2013-04-05 12:09:00,
2013-04-05 02:14:00,68.1,63.4,30.02,NE,50,4.0,4.0,85,0.00,,,0.00,VWS V14.01,2013-04-05 12:14:00,
2013-04-05 02:19:00,68.1,63.4,30.02,NNE,18,7.0,9.0,85,0.00,,,0.00,VWS V14.01,2013-04-05 12:19:00,
2013-04-05 02:24:00,68.2,63.5,30.02,North,359,5.0,5.0,85,0.00,,,0.00,VWS V14.01,2013-04-05 12:24:00,
2013-04-05 02:29:00,68.1,63.4,30.02,NNE,21,4.0,4.0,85,0.00,,,0.00,VWS V14.01,2013-04-05 12:29:00,
2013-04-05 02:34:00,68.2,63.5,30.02,NNE,21,10.0,10.0,85,0.00,,,0.00,VWS V14.01,2013-04-05 12:34:00,
2013-04-05 02:39:00,68.2,63.5,30.01,North,2,5.0,11.0,85,0.00,,,0.00,VWS V14.01,2013-04-05 12:39:00,
2013-04-05 02:45:00,68.3,63.6,30.01,NNE,27,4.0,6.0,85,0.00,,,0.00,VWS V14.01,2013-04-05 12:45:00,
2013-04-05 02:50:00,68.1,63.4,30.01,ENE,70,4.0,4.0,85,0.00,,,0.00,VWS V14.01,2013-04-05 12:50:00,
2013-04-05 02:55:00,68.3,63.6,30.01,North,5,9.0,9.0,85,0.00,,,0.00,VWS V14.01,2013-04-05 12:55:00,
2013-04-05 03:00:00,68.2,63.5,30.01,NE,40,3.0,5.0,85,0.00,,,0.00,VWS V14.01,2013-04-05 13:00:00,
2013-04-05 03:05:00,68.1,63.4,30.01,NNE,28,3.0,4.0,85,0.00,,,0.00,VWS V14.01,2013-04-05 13:05:00,
2013-04-05 03:10:00,68.1,63.4,30.01,NE,40,4.0,4.0,85,0.00,,,0.00,VWS V14.01,2013-04-05 13:10:00,
2013-04-05 03:15:00,67.9,63.2,30.01,NNW,346,6.0,6.0,85,0.00,,,0.00,VWS V14.01,2013-04-05 13:15:00,
2013-04-05 03:20:00,67.9,63.2,30.01,NNE,21,7.0,7.0,85,0.00,,,0.00,VWS V14.01,2013-04-05 13:20:00,
2013-04-05 03:28:00,68.0,63.7,30.01,NE,52,5.0,5.0,86,0.00,,,0.00,VWS V14.01,2013-04-05 13:28:00,
2013-04-05 03:33:00,68.0,63.3,30.01,NNE,23,11.0,12.0,85,0.00,,,0.00,VWS V14.01,2013-04-05 13:33:00,
2013-04-05 03:38:00,68.1,63.4,30.01,NNE,15,4.0,4.0,85,0.00,,,0.00,VWS V14.01,2013-04-05 13:38:00,
2013-04-05 03:43:00,68.0,63.3,30.01,NE,34,3.0,3.0,85,0.00,,,0.00,VWS V14.01,2013-04-05 13:43:00,
2013-04-05 03:48:00,68.0,63.3,30.01,NE,45,0.0,3.0,85,0.00,,,0.00,VWS V14.01,2013-04-05 13:48:00,
2013-04-05 03:53:00,68.0,63.3,30.01,NNE,26,3.0,4.0,85,0.00,,,0.00,VWS V14.01,2013-04-05 13:53:00,
2013-04-05 03:58:00,67.8,63.1,30.01,NE,39,4.0,6.0,85,0.00,,,0.00,VWS V14.01,2013-04-05 13:58:00,
2013-04-05 04:03:00,67.8,63.1,30.01,NE,51,4.0,5.0,85,0.00,,,0.00,VWS V14.01,2013-04-05 14:03:00,
2013-04-05 04:08:00,67.8,63.1,30.01,NE,34,5.0,6.0,85,0.00,,,0.00,VWS V14.01,2013-04-05 14:08:00,
2013-04-05 04:13:00,67.8,62.8,30.01,NNE,19,7.0,9.0,84,0.00,,,0.00,VWS V14.01,2013-04-05 14:13:00,
2013-04-05 04:18:00,67.7,62.4,30.01,North,6,10.0,10.0,83,0.00,,,0.00,VWS V14.01,2013-04-05 14:18:00,
2013-04-05 04:23:00,67.5,62.5,30.01,NNE,31,8.0,8.0,84,0.00,,,0.00,VWS V14.01,2013-04-05 14:23:00,
2013-04-05 04:29:00,67.6,62.6,30.01,NNE,15,8.0,8.0,84,0.00,,,0.00,VWS V14.01,2013-04-05 14:29:00,
2013-04-05 04:34:00,67.7,62.4,30.01,NNE,20,9.0,9.0,83,0.00,,,0.00,VWS V14.01,2013-04-05 14:34:00,
2013-04-05 04:39:00,67.9,62.5,30.02,NNE,16,9.0,9.0,83,0.00,,,0.00,VWS V14.01,2013-04-05 14:39:00,
2013-04-05 04:44:00,67.9,62.5,30.02,NNE,16,12.0,12.0,83,0.00,,,0.00,VWS V14.01,2013-04-05 14:44:00,
2013-04-05 04:49:00,68.0,62.3,30.02,NE,52,3.0,3.0,82,0.00,,,0.00,VWS V14.01,2013-04-05 14:49:00,
2013-04-05 04:54:00,68.0,62.3,30.02,NE,38,7.0,7.0,82,0.00,,,0.00,VWS V14.01,2013-04-05 14:54:00,
2013-04-05 04:59:00,68.0,62.3,30.02,NNE,28,12.0,12.0,82,0.00,,,0.00,VWS V14.01,2013-04-05 14:59:00,
2013-04-05 05:05:00,68.0,62.3,30.02,NNE,25,4.0,8.0,82,0.00,,,0.00,VWS V14.01,2013-04-05 15:05:00,
2013-04-05 05:09:00,68.1,62.4,30.02,NNE,18,9.0,9.0,82,0.00,,,0.00,VWS V14.01,2013-04-05 15:09:00,
2013-04-05 05:15:00,68.3,62.2,30.02,North,353,10.0,10.0,81,0.00,,,0.00,VWS V14.01,2013-04-05 15:15:00,
2013-04-05 05:20:00,68.3,61.9,30.03,NNE,32,7.0,7.0,80,0.00,,,0.00,VWS V14.01,2013-04-05 15:20:00,
2013-04-05 05:25:00,68.3,62.2,30.03,NE,43,4.0,6.0,81,0.00,,,0.00,VWS V14.01,2013-04-05 15:25:00,
2013-04-05 05:30:00,68.4,63.0,30.03,North,353,4.0,4.0,83,0.00,,,0.00,VWS V14.01,2013-04-05 15:30:00,
2013-04-05 05:35:00,68.4,63.0,30.03,ENE,61,5.0,6.0,83,0.00,,,0.00,VWS V14.01,2013-04-05 15:35:00,
2013-04-05 05:40:00,68.4,63.0,30.03,NE,47,7.0,7.0,83,0.00,,,0.00,VWS V14.01,2013-04-05 15:40:00,
2013-04-05 05:45:00,68.4,63.0,30.04,NE,54,8.0,8.0,83,0.00,,,0.00,VWS V14.01,2013-04-05 15:45:00,
2013-04-05 05:50:00,68.2,63.2,30.04,NNE,27,8.0,9.0,84,0.00,,,0.00,VWS V14.01,2013-04-05 15:50:00,
2013-04-05 05:56:00,68.2,63.2,30.04,NNE,28,10.0,12.0,84,0.00,,,0.00,VWS V14.01,2013-04-05 15:56:00,
2013-04-05 06:01:00,68.1,63.1,30.04,North,9,9.0,9.0,84,0.00,,,0.00,VWS V14.01,2013-04-05 16:01:00,
2013-04-05 06:06:00,68.2,63.2,30.04,NE,41,6.0,10.0,84,0.00,,,0.00,VWS V14.01,2013-04-05 16:06:00,
2013-04-05 06:11:00,68.3,63.3,30.04,NE,41,11.0,13.0,84,0.00,,,0.00,VWS V14.01,2013-04-05 16:11:00,
2013-04-05 06:16:00,68.3,63.3,30.05,NE,37,11.0,12.0,84,0.00,,,0.00,VWS V14.01,2013-04-05 16:16:00,
2013-04-05 06:22:00,68.4,63.4,30.05,North,358,10.0,10.0,84,0.00,,,0.00,VWS V14.01,2013-04-05 16:22:00,
2013-04-05 06:27:00,68.4,63.4,30.05,NNE,22,11.0,11.0,84,0.00,,,0.00,VWS V14.01,2013-04-05 16:27:00,
2013-04-05 06:32:00,68.4,63.4,30.05,NNE,22,12.0,12.0,84,0.00,,,0.00,VWS V14.01,2013-04-05 16:32:00,
2013-04-05 06:37:00,68.5,63.1,30.05,North,9,12.0,14.0,83,0.00,,,0.00,VWS V14.01,2013-04-05 16:37:00,
2013-04-05 06:42:00,68.7,63.3,30.06,NNE,19,11.0,14.0,83,0.00,,,0.00,VWS V14.01,2013-04-05 16:42:00,
2013-04-05 06:47:00,68.7,63.3,30.06,NNE,15,7.0,7.0,83,0.00,,,0.00,VWS V14.01,2013-04-05 16:47:00,
2013-04-05 06:53:00,68.7,63.3,30.06,NNE,13,11.0,11.0,83,0.00,,,0.00,VWS V14.01,2013-04-05 16:53:00,
2013-04-05 06:58:00,68.8,63.4,30.06,NNE,26,9.0,9.0,83,0.00,,,0.00,VWS V14.01,2013-04-05 16:58:00,
2013-04-05 07:03:00,68.9,63.5,30.06,NE,49,7.0,7.0,83,0.00,,,0.00,VWS V14.01,2013-04-05 17:03:00,
2013-04-05 07:08:00,69.0,63.6,30.07,ENE,59,12.0,12.0,83,0.00,,,0.00,VWS V14.01,2013-04-05 17:08:00,
2013-04-05 07:13:00,69.1,63.7,30.07,NE,47,16.0,16.0,83,0.00,,,0.00,VWS V14.01,2013-04-05 17:13:00,
2013-04-05 07:18:00,69.2,63.5,30.06,NNE,23,13.0,14.0,82,0.00,,,0.00,VWS V14.01,2013-04-05 17:18:00,
2013-04-05 07:23:00,69.4,63.7,30.07,NE,50,10.0,11.0,82,0.00,,,0.00,VWS V14.01,2013-04-05 17:23:00,
2013-04-05 07:28:00,69.5,63.8,30.07,North,5,13.0,14.0,82,0.00,,,0.00,VWS V14.01,2013-04-05 17:28:00,
2013-04-05 07:33:00,69.7,63.6,30.07,NNE,21,5.0,11.0,81,0.00,,,0.00,VWS V14.01,2013-04-05 17:33:00,
2013-04-05 07:38:00,70.0,63.9,30.08,ENE,68,6.0,7.0,81,0.00,,,0.00,VWS V14.01,2013-04-05 17:38:00,
2013-04-05 07:44:00,70.0,63.5,30.07,East,96,8.0,11.0,80,0.00,,,0.00,VWS V14.01,2013-04-05 17:44:00,
2013-04-05 07:49:00,69.9,63.8,30.08,NE,38,11.0,15.0,81,0.00,,,0.00,VWS V14.01,2013-04-05 17:49:00,
2013-04-05 07:54:00,69.7,63.6,30.07,NE,44,11.0,13.0,81,0.00,,,0.00,VWS V14.01,2013-04-05 17:54:00,
2013-04-05 07:59:00,69.7,63.3,30.08,NNE,29,8.0,16.0,80,0.00,,,0.00,VWS V14.01,2013-04-05 17:59:00,
2013-04-05 08:04:00,69.8,63.4,30.08,NE,50,8.0,10.0,80,0.00,,,0.00,VWS V14.01,2013-04-05 18:04:00,
2013-04-05 08:09:00,69.9,63.1,30.08,NE,35,8.0,8.0,79,0.00,,,0.00,VWS V14.01,2013-04-05 18:09:00,
2013-04-05 08:14:00,69.8,63.0,30.08,NE,37,6.0,9.0,79,0.00,,,0.00,VWS V14.01,2013-04-05 18:14:00,
2013-04-05 08:20:00,69.9,63.5,30.08,NNE,15,10.0,11.0,80,0.00,,,0.00,VWS V14.01,2013-04-05 18:20:00,
2013-04-05 08:25:00,70.2,63.4,30.09,NNE,33,16.0,16.0,79,0.00,,,0.00,VWS V14.01,2013-04-05 18:25:00,
2013-04-05 08:30:00,70.5,63.7,30.09,NE,45,12.0,14.0,79,0.00,,,0.00,VWS V14.01,2013-04-05 18:30:00,
2013-04-05 08:35:00,71.0,64.2,30.09,North,5,14.0,15.0,79,0.00,,,0.00,VWS V14.01,2013-04-05 18:35:00,
2013-04-05 08:40:00,70.9,63.7,30.09,ENE,61,6.0,10.0,78,0.00,,,0.00,VWS V14.01,2013-04-05 18:40:00,
2013-04-05 08:45:00,71.0,64.2,30.09,ENE,62,11.0,11.0,79,0.00,,,0.00,VWS V14.01,2013-04-05 18:45:00,
2013-04-05 08:50:00,71.0,64.2,30.09,NE,38,8.0,8.0,79,0.00,,,0.00,VWS V14.01,2013-04-05 18:50:00,
2013-04-05 08:55:00,71.4,64.6,30.09,East,83,9.0,9.0,79,0.00,,,0.00,VWS V14.01,2013-04-05 18:55:00,
2013-04-05 09:00:00,71.9,64.3,30.09,NE,42,9.0,11.0,77,0.00,,,0.00,VWS V14.01,2013-04-05 19:00:00,
2013-04-05 09:05:00,71.7,64.1,30.09,ENE,78,7.0,11.0,77,0.00,,,0.00,VWS V14.01,2013-04-05 19:05:00,
2013-04-05 09:10:00,71.6,64.0,30.09,NE,41,11.0,11.0,77,0.00,,,0.00,VWS V14.01,2013-04-05 19:10:00,
2013-04-05 09:15:00,71.7,64.8,30.09,ENE,59,12.0,14.0,79,0.00,,,0.00,VWS V14.01,2013-04-05 19:15:00,
2013-04-05 09:20:00,71.9,64.3,30.10,NNE,15,10.0,12.0,77,0.00,,,0.00,VWS V14.01,2013-04-05 19:20:00,
2013-04-05 09:26:00,72.2,65.0,30.10,ENE,59,13.0,14.0,78,0.00,,,0.00,VWS V14.01,2013-04-05 19:26:00,
2013-04-05 09:31:00,72.4,64.4,30.10,NE,45,13.0,13.0,76,0.00,,,0.00,VWS V14.01,2013-04-05 19:31:00,
2013-04-05 09:36:00,72.7,64.7,30.10,East,80,7.0,11.0,76,0.00,,,0.00,VWS V14.01,2013-04-05 19:36:00,
2013-04-05 09:41:00,72.7,64.3,30.10,ENE,57,14.0,14.0,75,0.00,,,0.00,VWS V14.01,2013-04-05 19:41:00,
2013-04-05 09:46:00,72.5,64.5,30.10,NE,55,13.0,13.0,76,0.00,,,0.00,VWS V14.01,2013-04-05 19:46:00,
2013-04-05 09:51:00,72.5,64.5,30.10,ENE,60,11.0,12.0,76,0.00,,,0.00,VWS V14.01,2013-04-05 19:51:00,
2013-04-05 09:56:00,72.5,63.8,30.10,ENE,78,11.0,11.0,74,0.00,,,0.00,VWS V14.01,2013-04-05 19:56:00,
2013-04-05 10:02:00,72.6,64.6,30.10,East,80,8.0,8.0,76,0.00,,,0.00,VWS V14.01,2013-04-05 20:02:00,
2013-04-05 10:07:00,73.4,65.4,30.10,ENE,57,20.0,20.0,76,0.00,,,0.00,VWS V14.01,2013-04-05 20:07:00,
2013-04-05 10:12:00,73.0,65.7,30.10,ESE,122,12.0,12.0,78,0.00,,,0.00,VWS V14.01,2013-04-05 20:12:00,
2013-04-05 10:17:00,73.6,65.9,30.10,NE,56,12.0,14.0,77,0.00,,,0.00,VWS V14.01,2013-04-05 20:17:00,
2013-04-05 10:22:00,73.3,65.3,30.09,ENE,73,12.0,15.0,76,0.00,,,0.00,VWS V14.01,2013-04-05 20:22:00,
2013-04-05 10:28:00,73.2,64.8,30.09,ENE,61,12.0,14.0,75,0.00,,,0.00,VWS V14.01,2013-04-05 20:28:00,
2013-04-05 10:33:00,73.0,65.7,30.10,NE,51,11.0,14.0,78,0.00,,,0.00,VWS V14.01,2013-04-05 20:33:00,
2013-04-05 10:38:00,73.0,65.7,30.09,ENE,58,16.0,16.0,78,0.00,,,0.00,VWS V14.01,2013-04-05 20:38:00,
2013-04-05 10:43:00,72.6,65.0,30.09,ESE,104,13.0,13.0,77,0.00,,,0.00,VWS V14.01,2013-04-05 20:43:00,
2013-04-05 10:48:00,73.1,65.1,30.09,East,88,10.0,11.0,76,0.00,,,0.00,VWS V14.01,2013-04-05 20:48:00,
2013-04-05 10:53:00,73.3,65.3,30.09,East,85,9.0,12.0,76,0.00,,,0.00,VWS V14.01,2013-04-05 20:53:00,
2013-04-05 10:59:00,72.9,65.3,30.09,East,98,15.0,17.0,77,0.00,,,0.00,VWS V14.01,2013-04-05 20:59:00,
2013-04-05 11:04:00,72.6,65.3,30.09,ENE,60,7.0,8.0,78,0.00,,,0.00,VWS V14.01,2013-04-05 21:04:00,
2013-04-05 11:09:00,72.6,65.0,30.08,NE,54,16.0,16.0,77,0.00,,,0.00,VWS V14.01,2013-04-05 21:09:00,
2013-04-05 11:14:00,72.7,65.1,30.09,NE,45,18.0,18.0,77,0.00,,,0.00,VWS V14.01,2013-04-05 21:14:00,
2013-04-05 11:19:00,72.2,65.0,30.08,ENE,64,11.0,13.0,78,0.00,,,0.00,VWS V14.01,2013-04-05 21:19:00,
2013-04-05 11:24:00,72.3,65.4,30.09,ESE,115,20.0,20.0,79,0.00,,,0.00,VWS V14.01,2013-04-05 21:24:00,
2013-04-05 11:29:00,72.8,65.2,30.08,East,99,12.0,13.0,77,0.00,,,0.00,VWS V14.01,2013-04-05 21:29:00,
2013-04-05 11:35:00,72.3,65.1,30.08,ENE,77,8.0,10.0,78,0.00,,,0.00,VWS V14.01,2013-04-05 21:35:00,
2013-04-05 11:40:00,72.1,65.2,30.08,East,90,7.0,11.0,79,0.00,,,0.00,VWS V14.01,2013-04-05 21:40:00,
2013-04-05 11:45:00,72.4,65.5,30.08,East,91,12.0,14.0,79,0.00,,,0.00,VWS V14.01,2013-04-05 21:45:00,
2013-04-05 11:51:00,72.5,65.6,30.08,East,96,10.0,12.0,79,0.00,,,0.00,VWS V14.01,2013-04-05 21:51:00,
2013-04-05 11:56:00,72.7,65.8,30.08,ENE,76,12.0,14.0,79,0.00,,,0.00,VWS V14.01,2013-04-05 21:56:00,
2013-04-05 12:01:00,72.2,65.3,30.08,ESE,103,12.0,15.0,79,0.00,,,0.00,VWS V14.01,2013-04-05 22:01:00,
2013-04-05 12:06:00,71.8,65.3,30.07,NNE,25,10.0,10.0,80,0.00,,,0.00,VWS V14.01,2013-04-05 22:06:00,
2013-04-05 12:11:00,71.9,65.4,30.07,NE,52,11.0,11.0,80,0.00,,,0.00,VWS V14.01,2013-04-05 22:11:00,
2013-04-05 12:17:00,72.3,65.4,30.07,NNE,26,10.0,10.0,79,0.00,,,0.00,VWS V14.01,2013-04-05 22:17:00,
2013-04-05 12:22:00,72.2,65.3,30.07,NE,40,9.0,12.0,79,0.00,,,0.00,VWS V14.01,2013-04-05 22:22:00,
2013-04-05 12:27:00,72.2,65.7,30.07,ENE,77,11.0,11.0,80,0.00,,,0.00,VWS V14.01,2013-04-05 22:27:00,
2013-04-05 12:32:00,72.5,66.0,30.07,East,80,12.0,12.0,80,0.00,,,0.00,VWS V14.01,2013-04-05 22:32:00,
2013-04-05 12:37:00,72.1,65.2,30.06,NE,56,9.0,9.0,79,0.00,,,0.00,VWS V14.01,2013-04-05 22:37:00,
2013-04-05 12:42:00,71.9,65.4,30.06,East,97,14.0,15.0,80,0.00,,,0.00,VWS V14.01,2013-04-05 22:42:00,
2013-04-05 12:47:00,71.8,65.3,30.06,ENE,64,6.0,8.0,80,0.00,,,0.00,VWS V14.01,2013-04-05 22:47:00,
2013-04-05 12:52:00,72.2,65.0,30.06,East,96,9.0,12.0,78,0.00,,,0.00,VWS V14.01,2013-04-05 22:52:00,
2013-04-05 12:57:00,72.3,65.1,30.06,ENE,73,8.0,12.0,78,0.00,,,0.00,VWS V14.01,2013-04-05 22:57:00,
2013-04-05 13:02:00,72.5,65.6,30.06,NE,47,9.0,9.0,79,0.00,,,0.00,VWS V14.01,2013-04-05 23:02:00,
2013-04-05 13:07:00,72.2,65.3,30.05,NE,54,11.0,13.0,79,0.00,,,0.00,VWS V14.01,2013-04-05 23:07:00,
2013-04-05 13:12:00,71.9,65.4,30.05,NE,37,10.0,10.0,80,0.00,,,0.00,VWS V14.01,2013-04-05 23:12:00,
2013-04-05 13:18:00,71.6,65.5,30.05,NE,46,13.0,13.0,81,0.00,,,0.00,VWS V14.01,2013-04-05 23:18:00,
2013-04-05 13:23:00,71.7,65.6,30.05,ENE,66,7.0,10.0,81,0.00,,,0.00,VWS V14.01,2013-04-05 23:23:00,
2013-04-05 13:28:00,71.8,65.7,30.05,NNE,26,9.0,9.0,81,0.00,,,0.00,VWS V14.01,2013-04-05 23:28:00,
2013-04-05 13:33:00,71.6,65.5,30.05,NE,39,12.0,12.0,81,0.00,,,0.00,VWS V14.01,2013-04-05 23:33:00,
2013-04-05 13:38:00,71.7,65.6,30.04,ENE,76,13.0,13.0,81,0.00,,,0.00,VWS V14.01,2013-04-05 23:38:00,
2013-04-05 13:43:00,71.6,65.5,30.04,NE,54,9.0,9.0,81,0.00,,,0.00,VWS V14.01,2013-04-05 23:43:00,
2013-04-05 13:48:00,71.9,66.1,30.04,ENE,78,10.0,12.0,82,0.00,,,0.00,VWS V14.01,2013-04-05 23:48:00,
2013-04-05 13:53:00,71.7,65.9,30.03,NNE,32,12.0,14.0,82,0.00,,,0.00,VWS V14.01,2013-04-05 23:53:00,
2013-04-05 13:58:00,72.0,66.2,30.03,ENE,63,8.0,16.0,82,0.00,,,0.00,VWS V14.01,2013-04-05 23:58:00,
2013-04-05 14:03:00,72.0,65.9,30.03,ENE,57,7.0,8.0,81,0.00,,,0.00,VWS V14.01,2013-04-06 00:03:00,
2013-04-05 14:08:00,71.9,66.1,30.03,ESE,111,14.0,14.0,82,0.00,,,0.00,VWS V14.01,2013-04-06 00:08:00,
2013-04-05 14:13:00,72.1,66.3,30.02,ENE,73,12.0,12.0,82,0.00,,,0.00,VWS V14.01,2013-04-06 00:13:00,
2013-04-05 14:19:00,72.2,66.8,30.02,East,86,9.0,9.0,83,0.00,,,0.00,VWS V14.01,2013-04-06 00:19:00,
2013-04-05 14:24:00,72.2,66.8,30.02,ENE,75,13.0,13.0,83,0.00,,,0.00,VWS V14.01,2013-04-06 00:24:00,
2013-04-05 14:29:00,71.9,66.8,30.02,NE,50,8.0,10.0,84,0.00,,,0.00,VWS V14.01,2013-04-06 00:29:00,
2013-04-05 14:34:00,71.9,66.8,30.02,East,80,11.0,11.0,84,0.00,,,0.00,VWS V14.01,2013-04-06 00:34:00,
2013-04-05 14:39:00,71.9,66.8,30.02,ENE,58,10.0,10.0,84,0.00,,,0.00,VWS V14.01,2013-04-06 00:39:00,
2013-04-05 14:44:00,71.6,66.5,30.02,ENE,73,13.0,16.0,84,0.00,,,0.00,VWS V14.01,2013-04-06 00:44:00,
2013-04-05 14:49:00,71.7,66.6,30.02,East,82,15.0,19.0,84,0.00,,,0.00,VWS V14.01,2013-04-06 00:49:00,
2013-04-05 14:54:00,71.5,66.8,30.02,ENE,59,10.0,10.0,85,0.00,,,0.00,VWS V14.01,2013-04-06 00:54:00,
2013-04-05 14:59:00,71.3,66.6,30.02,NNE,28,9.0,9.0,85,0.00,,,0.00,VWS V14.01,2013-04-06 00:59:00,
2013-04-05 15:04:00,71.6,67.2,30.02,ENE,76,9.0,13.0,86,0.00,,,0.00,VWS V14.01,2013-04-06 01:04:00,
2013-04-05 15:09:00,71.7,67.3,30.02,ENE,69,10.0,12.0,86,0.00,,,0.00,VWS V14.01,2013-04-06 01:09:00,
2013-04-05 15:14:00,71.7,67.3,30.02,East,97,9.0,9.0,86,0.00,,,0.00,VWS V14.01,2013-04-06 01:14:00,
2013-04-05 15:19:00,71.7,67.3,30.02,ENE,58,13.0,13.0,86,0.00,,,0.00,VWS V14.01,2013-04-06 01:19:00,
2013-04-05 15:24:00,71.8,67.4,30.01,ENE,78,9.0,13.0,86,0.00,,,0.00,VWS V14.01,2013-04-06 01:24:00,
2013-04-05 15:29:00,71.4,67.3,30.02,NE,45,13.0,13.0,87,0.00,,,0.00,VWS V14.01,2013-04-06 01:29:00,
2013-04-05 15:34:00,71.3,67.2,30.02,East,87,14.0,15.0,87,0.00,,,0.00,VWS V14.01,2013-04-06 01:34:00,
2013-04-05 15:39:00,71.1,67.0,30.01,NE,51,13.0,13.0,87,0.00,,,0.00,VWS V14.01,2013-04-06 01:39:00,
2013-04-05 15:45:00,71.0,66.3,30.02,ENE,58,11.0,11.0,85,0.00,,,0.00,VWS V14.01,2013-04-06 01:45:00,
2013-04-05 15:50:00,71.2,66.1,30.02,NE,35,7.0,7.0,84,0.00,,,0.00,VWS V14.01,2013-04-06 01:50:00,
2013-04-05 15:55:00,71.2,65.8,30.02,NE,40,9.0,11.0,83,0.00,,,0.00,VWS V14.01,2013-04-06 01:55:00,
2013-04-05 16:00:00,71.2,66.1,30.02,East,90,8.0,11.0,84,0.00,,,0.00,VWS V14.01,2013-04-06 02:00:00,
2013-04-05 16:05:00,71.1,66.0,30.02,ENE,61,8.0,9.0,84,0.00,,,0.00,VWS V14.01,2013-04-06 02:05:00,
2013-04-05 16:10:00,71.1,66.0,30.02,NNE,31,12.0,14.0,84,0.00,,,0.00,VWS V14.01,2013-04-06 02:10:00,
2013-04-05 16:15:00,71.2,65.8,30.01,NE,50,19.0,19.0,83,0.00,,,0.00,VWS V14.01,2013-04-06 02:15:00,
2013-04-05 16:20:00,71.4,65.6,30.02,NNE,21,10.0,13.0,82,0.00,,,0.00,VWS V14.01,2013-04-06 02:20:00,
2013-04-05 16:25:00,71.4,65.6,30.01,ENE,70,9.0,12.0,82,0.00,,,0.00,VWS V14.01,2013-04-06 02:25:00,
2013-04-05 16:30:00,71.1,65.7,30.02,NNE,21,10.0,10.0,83,0.00,,,0.00,VWS V14.01,2013-04-06 02:30:00,
2013-04-05 16:35:00,71.0,65.6,30.01,North,5,11.0,13.0,83,0.00,,,0.00,VWS V14.01,2013-04-06 02:35:00,
2013-04-05 16:41:00,70.7,65.6,30.01,NE,42,4.0,8.0,84,0.00,,,0.00,VWS V14.01,2013-04-06 02:41:00,
2013-04-05 16:46:00,70.9,65.5,30.01,North,360,13.0,13.0,83,0.00,,,0.00,VWS V14.01,2013-04-06 02:46:00,
2013-04-05 16:52:00,71.0,65.2,30.01,ENE,71,12.0,13.0,82,0.00,,,0.00,VWS V14.01,2013-04-06 02:52:00,
2013-04-05 16:57:00,71.1,65.3,30.01,North,353,3.0,4.0,82,0.00,,,0.00,VWS V14.01,2013-04-06 02:57:00,
2013-04-05 17:02:00,71.1,65.0,30.01,North,2,13.0,13.0,81,0.00,,,0.00,VWS V14.01,2013-04-06 03:02:00,
2013-04-05 17:07:00,71.1,65.3,30.01,NE,50,6.0,8.0,82,0.00,,,0.00,VWS V14.01,2013-04-06 03:07:00,
2013-04-05 17:12:00,70.9,65.5,30.01,NE,37,7.0,7.0,83,0.00,,,0.00,VWS V14.01,2013-04-06 03:12:00,
2013-04-05 17:17:00,70.6,65.5,30.01,NNE,23,13.0,15.0,84,0.00,,,0.00,VWS V14.01,2013-04-06 03:17:00,
2013-04-05 17:22:00,70.5,65.8,30.02,NE,35,7.0,7.0,85,0.00,,,0.00,VWS V14.01,2013-04-06 03:22:00,
2013-04-05 17:27:00,70.3,65.6,30.02,North,360,11.0,16.0,85,0.00,,,0.00,VWS V14.01,2013-04-06 03:27:00,
2013-04-05 17:32:00,70.4,65.7,30.02,ENE,62,12.0,13.0,85,0.00,,,0.00,VWS V14.01,2013-04-06 03:32:00,
2013-04-05 17:37:00,70.4,66.0,30.02,ENE,75,12.0,12.0,86,0.00,,,0.00,VWS V14.01,2013-04-06 03:37:00,
2013-04-05 17:42:00,70.4,66.0,30.02,NE,34,6.0,6.0,86,0.00,,,0.00,VWS V14.01,2013-04-06 03:42:00,
2013-04-05 17:47:00,70.5,66.1,30.02,NE,50,4.0,4.0,86,0.00,,,0.00,VWS V14.01,2013-04-06 03:47:00,
2013-04-05 17:53:00,70.5,66.4,30.02,NNE,33,8.0,8.0,87,0.00,,,0.00,VWS V14.01,2013-04-06 03:53:00,
2013-04-05 17:58:00,70.5,66.4,30.02,NNE,24,4.0,4.0,87,0.00,,,0.00,VWS V14.01,2013-04-06 03:58:00,
2013-04-05 18:00:00,70.4,66.3,30.02,ENE,57,5.0,5.0,87,0.00,,,0.00,VWS V14.01,2013-04-06 04:00:00,
2013-04-05 18:01:00,70.4,66.3,30.03,East,97,8.0,8.0,87,0.00,,,0.00,VWS V14.01,2013-04-06 04:01:00,
2013-04-05 18:07:00,70.5,66.8,30.03,NE,52,10.0,13.0,88,0.00,,,0.00,VWS V14.01,2013-04-06 04:07:00,
2013-04-05 18:12:00,70.5,67.1,30.03,NNE,21,10.0,13.0,89,0.00,,,0.00,VWS V14.01,2013-04-06 04:12:00,
2013-04-05 18:17:00,70.3,66.9,30.03,NE,54,5.0,5.0,89,0.00,,,0.00,VWS V14.01,2013-04-06 04:17:00,
2013-04-05 18:22:00,70.3,67.2,30.03,NE,40,6.0,6.0,90,0.00,,,0.00,VWS V14.01,2013-04-06 04:22:00,
2013-04-05 18:27:00,70.1,67.0,30.03,NNE,21,9.0,13.0,90,0.00,,,0.00,VWS V14.01,2013-04-06 04:27:00,
2013-04-05 18:32:00,70.0,67.3,30.03,NE,54,9.0,10.0,91,0.00,,,0.00,VWS V14.01,2013-04-06 04:32:00,
2013-04-05 18:37:00,69.8,66.7,30.04,NE,42,9.0,11.0,90,0.00,,,0.00,VWS V14.01,2013-04-06 04:37:00,
2013-04-05 18:43:00,69.7,66.6,30.04,NNE,22,13.0,14.0,90,0.00,,,0.00,VWS V14.01,2013-04-06 04:43:00,
2013-04-05 18:48:00,69.8,66.4,30.04,NE,55,5.0,6.0,89,0.00,,,0.00,VWS V14.01,2013-04-06 04:48:00,
2013-04-05 18:53:00,69.8,66.4,30.04,NNE,33,9.0,9.0,89,0.00,,,0.00,VWS V14.01,2013-04-06 04:53:00,
2013-04-05 18:58:00,69.8,66.4,30.04,NNE,21,7.0,7.0,89,0.00,,,0.00,VWS V14.01,2013-04-06 04:58:00,
2013-04-05 19:03:00,69.8,66.7,30.04,NNE,16,8.0,8.0,90,0.00,,,0.00,VWS V14.01,2013-04-06 05:03:00,
2013-04-05 19:08:00,69.6,66.5,30.04,NNE,27,11.0,11.0,90,0.00,,,0.00,VWS V14.01,2013-04-06 05:08:00,
2013-04-05 19:13:00,69.5,66.8,30.05,NE,38,7.0,8.0,91,0.00,,,0.00,VWS V14.01,2013-04-06 05:13:00,
2013-04-05 19:18:00,69.4,66.7,30.05,NNE,21,6.0,6.0,91,0.00,,,0.00,VWS V14.01,2013-04-06 05:18:00,
2013-04-05 19:23:00,69.2,66.5,30.05,NNE,24,5.0,5.0,91,0.00,,,0.00,VWS V14.01,2013-04-06 05:23:00,
2013-04-05 19:28:00,69.1,66.4,30.05,NE,47,4.0,6.0,91,0.00,,,0.00,VWS V14.01,2013-04-06 05:28:00,
2013-04-05 19:33:00,69.1,66.4,30.05,NE,54,6.0,6.0,91,0.00,,,0.00,VWS V14.01,2013-04-06 05:33:00,
2013-04-05 19:38:00,69.2,66.5,30.06,NE,40,4.0,4.0,91,0.00,,,0.00,VWS V14.01,2013-04-06 05:38:00,
2013-04-05 19:43:00,69.2,66.5,30.06,NE,43,5.0,6.0,91,0.00,,,0.00,VWS V14.01,2013-04-06 05:43:00,
2013-04-05 19:48:00,69.2,66.5,30.06,NNE,12,9.0,9.0,91,0.00,,,0.00,VWS V14.01,2013-04-06 05:48:00,
2013-04-05 19:53:00,69.2,66.5,30.06,ENE,78,4.0,6.0,91,0.00,,,0.00,VWS V14.01,2013-04-06 05:53:00,
2013-04-05 19:59:00,69.2,66.5,30.06,NNE,12,9.0,10.0,91,0.00,,,0.00,VWS V14.01,2013-04-06 05:59:00,
2013-04-05 20:04:00,69.2,66.5,30.07,NE,51,7.0,8.0,91,0.00,,,0.00,VWS V14.01,2013-04-06 06:04:00,
2013-04-05 20:09:00,69.2,66.5,30.07,NE,47,11.0,11.0,91,0.00,,,0.00,VWS V14.01,2013-04-06 06:09:00,
2013-04-05 20:14:00,69.3,66.2,30.07,NE,47,8.0,8.0,90,0.00,,,0.00,VWS V14.01,2013-04-06 06:14:00,
2013-04-05 20:19:00,69.6,66.2,30.07,NNW,331,8.0,12.0,89,0.00,,,0.00,VWS V14.01,2013-04-06 06:19:00,
2013-04-05 20:25:00,70.0,66.3,30.07,North,357,12.0,12.0,88,0.00,,,0.00,VWS V14.01,2013-04-06 06:25:00,
2013-04-05 20:30:00,70.6,66.2,30.07,NNE,16,10.0,10.0,86,0.00,,,0.00,VWS V14.01,2013-04-06 06:30:00,
2013-04-05 20:35:00,71.0,65.9,30.07,NNW,328,9.0,9.0,84,0.00,,,0.00,VWS V14.01,2013-04-06 06:35:00,
2013-04-05 20:40:00,71.5,66.1,30.07,NNE,20,9.0,12.0,83,0.00,,,0.00,VWS V14.01,2013-04-06 06:40:00,
2013-04-05 20:45:00,71.8,66.0,30.07,North,3,6.0,7.0,82,0.00,,,0.00,VWS V14.01,2013-04-06 06:45:00,
2013-04-05 20:50:00,72.0,65.9,30.08,NNE,29,5.0,8.0,81,0.00,,,0.00,VWS V14.01,2013-04-06 06:50:00,
2013-04-05 20:55:00,72.2,66.1,30.08,North,8,8.0,8.0,81,0.00,,,0.00,VWS V14.01,2013-04-06 06:55:00,
2013-04-05 21:00:00,72.3,65.8,30.08,NNE,12,4.0,4.0,80,0.00,,,0.00,VWS V14.01,2013-04-06 07:00:00,
2013-04-05 21:05:00,72.0,65.9,30.08,NNE,24,3.0,3.0,81,0.00,,,0.00,VWS V14.01,2013-04-06 07:05:00,
2013-04-05 21:10:00,71.2,65.4,30.08,NE,35,2.0,3.0,82,0.00,,,0.00,VWS V14.01,2013-04-06 07:10:00,
2013-04-05 21:15:00,71.0,65.6,30.09,North,2,7.0,7.0,83,0.00,,,0.00,VWS V14.01,2013-04-06 07:15:00,
2013-04-05 21:20:00,71.4,65.6,30.09,NE,43,1.0,1.0,82,0.00,,,0.00,VWS V14.01,2013-04-06 07:20:00,
2013-04-05 21:25:00,71.6,65.8,30.09,NE,42,3.0,4.0,82,0.00,,,0.00,VWS V14.01,2013-04-06 07:25:00,
2013-04-05 21:31:00,71.4,65.6,30.09,NNE,16,3.0,3.0,82,0.00,,,0.00,VWS V14.01,2013-04-06 07:31:00,
2013-04-05 21:35:00,70.8,65.0,30.09,NNE,18,5.0,5.0,82,0.00,,,0.00,VWS V14.01,2013-04-06 07:35:00,
2013-04-05 21:41:00,70.7,65.3,30.09,NNE,31,3.0,3.0,83,0.00,,,0.00,VWS V14.01,2013-04-06 07:41:00,
2013-04-05 21:46:00,70.5,65.8,30.09,NNE,17,4.0,5.0,85,0.00,,,0.00,VWS V14.01,2013-04-06 07:46:00,
2013-04-05 21:51:00,70.9,65.8,30.10,NNE,32,3.0,3.0,84,0.00,,,0.00,VWS V14.01,2013-04-06 07:51:00,
2013-04-05 21:56:00,70.9,65.8,30.10,NNE,33,3.0,4.0,84,0.00,,,0.00,VWS V14.01,2013-04-06 07:56:00,
2013-04-05 22:01:00,70.3,65.6,30.10,NNE,16,1.0,1.0,85,0.00,,,0.00,VWS V14.01,2013-04-06 08:01:00,
2013-04-05 22:06:00,70.0,65.3,30.10,NNE,15,4.0,5.0,85,0.00,,,0.00,VWS V14.01,2013-04-06 08:06:00,
2013-04-05 22:11:00,70.2,66.2,30.10,NNE,24,3.0,5.0,87,0.00,,,0.00,VWS V14.01,2013-04-06 08:11:00,
2013-04-05 22:16:00,70.0,66.3,30.10,NNE,12,10.0,10.0,88,0.00,,,0.00,VWS V14.01,2013-04-06 08:16:00,
2013-04-05 22:21:00,69.9,66.2,30.10,East,86,3.0,4.0,88,0.00,,,0.00,VWS V14.01,2013-04-06 08:21:00,
2013-04-05 22:26:00,69.9,66.2,30.10,NNE,18,11.0,11.0,88,0.00,,,0.00,VWS V14.01,2013-04-06 08:26:00,
2013-04-05 22:31:00,70.1,66.4,30.10,NNE,31,4.0,6.0,88,0.00,,,0.00,VWS V14.01,2013-04-06 08:31:00,
2013-04-05 22:36:00,70.2,66.5,30.10,NE,49,4.0,7.0,88,0.00,,,0.00,VWS V14.01,2013-04-06 08:36:00,
2013-04-05 22:42:00,70.4,66.7,30.10,ENE,65,2.0,4.0,88,0.00,,,0.00,VWS V14.01,2013-04-06 08:42:00,
2013-04-05 22:47:00,70.3,66.2,30.10,NE,43,7.0,7.0,87,0.00,,,0.00,VWS V14.01,2013-04-06 08:47:00,
2013-04-05 22:52:00,70.4,66.3,30.10,NNE,31,6.0,9.0,87,0.00,,,0.00,VWS V14.01,2013-04-06 08:52:00,
2013-04-05 22:57:00,70.4,66.7,30.10,NNE,33,9.0,9.0,88,0.00,,,0.00,VWS V14.01,2013-04-06 08:57:00,
2013-04-05 23:02:00,70.4,66.7,30.09,NNW,339,8.0,8.0,88,0.00,,,0.00,VWS V14.01,2013-04-06 09:02:00,
2013-04-05 23:07:00,70.4,66.7,30.09,NNW,348,2.0,4.0,88,0.00,,,0.00,VWS V14.01,2013-04-06 09:07:00,
2013-04-05 23:12:00,70.6,66.9,30.09,ENE,58,3.0,3.0,88,0.00,,,0.00,VWS V14.01,2013-04-06 09:12:00,
2013-04-05 23:17:00,70.5,66.8,30.10,NNE,24,12.0,13.0,88,0.00,,,0.00,VWS V14.01,2013-04-06 09:17:00,
2013-04-05 23:22:00,70.3,66.9,30.09,ENE,63,4.0,4.0,89,0.00,,,0.00,VWS V14.01,2013-04-06 09:22:00,
2013-04-05 23:27:00,70.4,67.3,30.09,North,5,8.0,8.0,90,0.00,,,0.00,VWS V14.01,2013-04-06 09:27:00,
2013-04-05 23:32:00,70.3,67.6,30.09,NE,44,10.0,11.0,91,0.00,,,0.00,VWS V14.01,2013-04-06 09:32:00,
2013-04-05 23:37:00,70.3,67.9,30.09,ENE,73,7.0,7.0,92,0.00,,,0.00,VWS V14.01,2013-04-06 09:37:00,
2013-04-05 23:42:00,70.1,67.7,30.09,NNE,23,6.0,6.0,92,0.00,,,0.00,VWS V14.01,2013-04-06 09:42:00,
2013-04-05 23:47:00,69.9,67.5,30.09,East,101,6.0,7.0,92,0.00,,,0.00,VWS V14.01,2013-04-06 09:47:00,
2013-04-05 23:52:00,69.8,67.4,30.09,ENE,73,0.0,1.0,92,0.00,,,0.00,VWS V14.01,2013-04-06 09:52:00,
2013-04-05 23:57:00,69.7,67.3,30.09,NNW,342,7.0,7.0,92,0.00,,,0.00,VWS V14.01,2013-04-06 09:57:00,